sensor_id;sensor_type;location;lat;lon;timestamp;P1;durP1;ratioP1;P2;durP2;ratioP2
3979;SDS011;2004;52.452;13.120;2023-11-21T00:05:54;183.73;;;8.40;;
3979;SDS011;2004;52.452;13.120;2023-11-21T00:13:45;178.23;;;8.03;;
3979;SDS011;2004;52.452;13.120;2023-11-21T00:21:35;182.60;;;10.73;;
3979;SDS011;2004;52.452;13.120;2023-11-21T00:29:27;187.57;;;12.77;;
3979;SDS011;2004;52.452;13.120;2023-11-21T00:37:18;189.17;;;14.90;;
3979;SDS011;2004;52.452;13.120;2023-11-21T00:45:09;192.43;;;14.80;;
3979;SDS011;2004;52.452;13.120;2023-11-21T00:52:59;190.37;;;15.70;;
3979;SDS011;2004;52.452;13.120;2023-11-21T01:00:53;204.07;;;18.00;;
3979;SDS011;2004;52.452;13.120;2023-11-21T01:08:46;207.53;;;19.30;;
3979;SDS011;2004;52.452;13.120;2023-11-21T01:16:39;206.70;;;16.97;;
3979;SDS011;2004;52.452;13.120;2023-11-21T01:24:30;195.90;;;16.10;;
3979;SDS011;2004;52.452;13.120;2023-11-21T01:32:21;202.40;;;15.57;;
3979;SDS011;2004;52.452;13.120;2023-11-21T01:40:12;194.13;;;16.47;;
3979;SDS011;2004;52.452;13.120;2023-11-21T01:48:03;203.60;;;16.77;;
3979;SDS011;2004;52.452;13.120;2023-11-21T01:56:03;193.43;;;16.00;;
3979;SDS011;2004;52.452;13.120;2023-11-21T02:03:57;189.93;;;15.70;;
3979;SDS011;2004;52.452;13.120;2023-11-21T02:11:48;200.73;;;17.13;;
3979;SDS011;2004;52.452;13.120;2023-11-21T02:19:43;195.97;;;17.10;;
3979;SDS011;2004;52.452;13.120;2023-11-21T02:27:35;194.03;;;17.60;;
3979;SDS011;2004;52.452;13.120;2023-11-21T02:35:29;199.50;;;16.93;;
3979;SDS011;2004;52.452;13.120;2023-11-21T02:43:21;195.87;;;17.10;;
3979;SDS011;2004;52.452;13.120;2023-11-21T02:51:13;196.30;;;16.60;;
3979;SDS011;2004;52.452;13.120;2023-11-21T02:59:03;191.00;;;17.00;;
3979;SDS011;2004;52.452;13.120;2023-11-21T03:06:54;194.60;;;15.80;;
3979;SDS011;2004;52.452;13.120;2023-11-21T03:14:45;193.43;;;17.50;;
3979;SDS011;2004;52.452;13.120;2023-11-21T03:22:36;194.37;;;18.10;;
3979;SDS011;2004;52.452;13.120;2023-11-21T03:30:28;198.57;;;18.70;;
3979;SDS011;2004;52.452;13.120;2023-11-21T03:38:19;197.60;;;17.70;;
3979;SDS011;2004;52.452;13.120;2023-11-21T03:46:10;197.10;;;18.67;;
3979;SDS011;2004;52.452;13.120;2023-11-21T03:54:02;198.07;;;19.33;;
3979;SDS011;2004;52.452;13.120;2023-11-21T04:01:54;194.37;;;17.80;;
3979;SDS011;2004;52.452;13.120;2023-11-21T04:09:47;195.13;;;17.73;;
3979;SDS011;2004;52.452;13.120;2023-11-21T04:17:37;196.60;;;17.47;;
3979;SDS011;2004;52.452;13.120;2023-11-21T04:25:28;203.00;;;19.80;;
3979;SDS011;2004;52.452;13.120;2023-11-21T04:33:19;199.27;;;19.57;;
3979;SDS011;2004;52.452;13.120;2023-11-21T04:41:09;197.33;;;19.40;;
3979;SDS011;2004;52.452;13.120;2023-11-21T04:49:11;199.80;;;19.60;;
3979;SDS011;2004;52.452;13.120;2023-11-21T04:57:07;199.47;;;19.70;;
3979;SDS011;2004;52.452;13.120;2023-11-21T05:04:58;198.03;;;19.67;;
3979;SDS011;2004;52.452;13.120;2023-11-21T05:12:49;199.90;;;19.80;;
3979;SDS011;2004;52.452;13.120;2023-11-21T05:20:41;203.07;;;22.23;;
3979;SDS011;2004;52.452;13.120;2023-11-21T05:28:34;202.47;;;19.77;;
3979;SDS011;2004;52.452;13.120;2023-11-21T05:36:26;204.87;;;21.40;;
3979;SDS011;2004;52.452;13.120;2023-11-21T05:44:28;202.50;;;20.33;;
3979;SDS011;2004;52.452;13.120;2023-11-21T05:52:19;204.80;;;20.80;;
3979;SDS011;2004;52.452;13.120;2023-11-21T06:08:42;200.50;;;19.30;;
3979;SDS011;2004;52.452;13.120;2023-11-21T06:16:37;201.67;;;19.93;;
3979;SDS011;2004;52.452;13.120;2023-11-21T06:24:41;198.60;;;18.90;;
3979;SDS011;2004;52.452;13.120;2023-11-21T06:32:35;197.97;;;18.93;;
3979;SDS011;2004;52.452;13.120;2023-11-21T06:40:45;198.03;;;18.27;;
3979;SDS011;2004;52.452;13.120;2023-11-21T06:48:37;201.67;;;18.63;;
3979;SDS011;2004;52.452;13.120;2023-11-21T06:56:41;196.10;;;17.63;;
3979;SDS011;2004;52.452;13.120;2023-11-21T07:04:33;198.67;;;17.33;;
3979;SDS011;2004;52.452;13.120;2023-11-21T07:12:24;189.90;;;14.80;;
3979;SDS011;2004;52.452;13.120;2023-11-21T07:20:15;191.50;;;14.17;;
3979;SDS011;2004;52.452;13.120;2023-11-21T07:28:07;188.20;;;13.17;;
3979;SDS011;2004;52.452;13.120;2023-11-21T07:35:58;187.53;;;13.60;;
3979;SDS011;2004;52.452;13.120;2023-11-21T07:43:50;189.77;;;13.47;;
3979;SDS011;2004;52.452;13.120;2023-11-21T07:51:47;191.17;;;13.57;;
3979;SDS011;2004;52.452;13.120;2023-11-21T07:59:43;190.10;;;13.90;;
3979;SDS011;2004;52.452;13.120;2023-11-21T08:07:44;191.30;;;14.00;;
3979;SDS011;2004;52.452;13.120;2023-11-21T08:15:35;189.67;;;13.93;;
3979;SDS011;2004;52.452;13.120;2023-11-21T08:23:27;190.37;;;13.40;;
3979;SDS011;2004;52.452;13.120;2023-11-21T08:31:25;187.63;;;12.90;;
3979;SDS011;2004;52.452;13.120;2023-11-21T08:39:15;194.73;;;13.80;;
3979;SDS011;2004;52.452;13.120;2023-11-21T08:47:12;190.07;;;13.40;;
3979;SDS011;2004;52.452;13.120;2023-11-21T08:55:05;185.23;;;11.83;;
3979;SDS011;2004;52.452;13.120;2023-11-21T09:02:57;188.87;;;12.53;;
3979;SDS011;2004;52.452;13.120;2023-11-21T09:10:48;189.40;;;12.13;;
3979;SDS011;2004;52.452;13.120;2023-11-21T09:18:41;184.43;;;11.40;;
3979;SDS011;2004;52.452;13.120;2023-11-21T09:26:35;185.67;;;11.50;;
3979;SDS011;2004;52.452;13.120;2023-11-21T09:34:43;188.20;;;13.20;;
3979;SDS011;2004;52.452;13.120;2023-11-21T09:42:38;185.67;;;11.20;;
3979;SDS011;2004;52.452;13.120;2023-11-21T09:50:38;182.43;;;10.30;;
3979;SDS011;2004;52.452;13.120;2023-11-21T09:58:31;185.13;;;10.97;;
3979;SDS011;2004;52.452;13.120;2023-11-21T10:06:32;184.37;;;11.53;;
3979;SDS011;2004;52.452;13.120;2023-11-21T10:14:32;187.37;;;11.50;;
3979;SDS011;2004;52.452;13.120;2023-11-21T10:33:15;181.87;;;10.80;;
3979;SDS011;2004;52.452;13.120;2023-11-21T10:41:09;182.17;;;10.40;;
3979;SDS011;2004;52.452;13.120;2023-11-21T10:49:02;185.63;;;11.73;;
3979;SDS011;2004;52.452;13.120;2023-11-21T10:56:53;184.60;;;10.10;;
3979;SDS011;2004;52.452;13.120;2023-11-21T11:04:48;188.97;;;11.90;;
3979;SDS011;2004;52.452;13.120;2023-11-21T11:12:41;182.40;;;11.00;;
3979;SDS011;2004;52.452;13.120;2023-11-21T11:20:36;188.87;;;12.47;;
3979;SDS011;2004;52.452;13.120;2023-11-21T11:28:40;187.07;;;12.60;;
3979;SDS011;2004;52.452;13.120;2023-11-21T11:36:36;190.63;;;13.30;;
3979;SDS011;2004;52.452;13.120;2023-11-21T12:08:20;185.30;;;12.63;;
3979;SDS011;2004;52.452;13.120;2023-11-21T12:16:11;186.30;;;12.83;;
3979;SDS011;2004;52.452;13.120;2023-11-21T12:24:02;194.90;;;13.90;;
3979;SDS011;2004;52.452;13.120;2023-11-21T12:31:54;191.53;;;14.47;;
3979;SDS011;2004;52.452;13.120;2023-11-21T12:39:44;190.10;;;14.30;;
3979;SDS011;2004;52.452;13.120;2023-11-21T12:47:35;193.37;;;14.93;;
3979;SDS011;2004;52.452;13.120;2023-11-21T12:55:26;193.67;;;14.83;;
3979;SDS011;2004;52.452;13.120;2023-11-21T13:03:19;195.80;;;15.60;;
3979;SDS011;2004;52.452;13.120;2023-11-21T13:11:15;203.90;;;20.87;;
3979;SDS011;2004;52.452;13.120;2023-11-21T13:19:07;194.93;;;14.70;;
3979;SDS011;2004;52.452;13.120;2023-11-21T13:26:58;198.30;;;15.87;;
3979;SDS011;2004;52.452;13.120;2023-11-21T13:34:49;197.27;;;16.13;;
3979;SDS011;2004;52.452;13.120;2023-11-21T13:42:43;195.13;;;14.87;;
3979;SDS011;2004;52.452;13.120;2023-11-21T13:50:33;194.57;;;17.50;;
3979;SDS011;2004;52.452;13.120;2023-11-21T13:58:25;195.10;;;16.10;;
3979;SDS011;2004;52.452;13.120;2023-11-21T14:06:31;198.87;;;17.30;;
3979;SDS011;2004;52.452;13.120;2023-11-21T14:14:30;200.30;;;18.70;;
3979;SDS011;2004;52.452;13.120;2023-11-21T14:22:20;201.37;;;18.73;;
3979;SDS011;2004;52.452;13.120;2023-11-21T14:30:11;202.47;;;19.60;;
3979;SDS011;2004;52.452;13.120;2023-11-21T14:38:03;213.53;;;26.77;;
3979;SDS011;2004;52.452;13.120;2023-11-21T14:45:54;210.70;;;23.00;;
3979;SDS011;2004;52.452;13.120;2023-11-21T14:53:47;214.93;;;25.40;;
3979;SDS011;2004;52.452;13.120;2023-11-21T15:01:44;240.07;;;31.00;;
3979;SDS011;2004;52.452;13.120;2023-11-21T15:09:45;228.60;;;29.00;;
3979;SDS011;2004;52.452;13.120;2023-11-21T15:17:35;214.53;;;25.23;;
3979;SDS011;2004;52.452;13.120;2023-11-21T15:25:27;209.57;;;22.90;;
3979;SDS011;2004;52.452;13.120;2023-11-21T15:33:17;200.17;;;18.77;;
3979;SDS011;2004;52.452;13.120;2023-11-21T15:41:08;204.00;;;21.60;;
3979;SDS011;2004;52.452;13.120;2023-11-21T15:49:01;203.87;;;20.80;;
3979;SDS011;2004;52.452;13.120;2023-11-21T15:56:54;212.57;;;24.90;;
3979;SDS011;2004;52.452;13.120;2023-11-21T16:04:49;211.37;;;25.20;;
3979;SDS011;2004;52.452;13.120;2023-11-21T16:12:40;206.03;;;22.80;;
3979;SDS011;2004;52.452;13.120;2023-11-21T16:20:31;213.10;;;23.27;;
3979;SDS011;2004;52.452;13.120;2023-11-21T16:28:22;208.43;;;23.60;;
3979;SDS011;2004;52.452;13.120;2023-11-21T16:36:13;205.43;;;22.27;;
3979;SDS011;2004;52.452;13.120;2023-11-21T16:44:04;203.27;;;22.20;;
3979;SDS011;2004;52.452;13.120;2023-11-21T16:51:55;200.77;;;19.33;;
3979;SDS011;2004;52.452;13.120;2023-11-21T16:59:45;201.57;;;20.20;;
3979;SDS011;2004;52.452;13.120;2023-11-21T17:07:40;212.37;;;26.23;;
3979;SDS011;2004;52.452;13.120;2023-11-21T17:15:31;206.33;;;23.77;;
3979;SDS011;2004;52.452;13.120;2023-11-21T17:23:21;202.80;;;20.47;;
3979;SDS011;2004;52.452;13.120;2023-11-21T17:31:12;200.60;;;18.10;;
3979;SDS011;2004;52.452;13.120;2023-11-21T17:39:03;199.90;;;18.47;;
3979;SDS011;2004;52.452;13.120;2023-11-21T17:46:58;193.17;;;16.87;;
3979;SDS011;2004;52.452;13.120;2023-11-21T17:54:49;202.63;;;19.93;;
3979;SDS011;2004;52.452;13.120;2023-11-21T18:02:40;203.60;;;19.30;;
3979;SDS011;2004;52.452;13.120;2023-11-21T18:10:31;199.57;;;17.60;;
3979;SDS011;2004;52.452;13.120;2023-11-21T18:18:24;198.73;;;18.30;;
3979;SDS011;2004;52.452;13.120;2023-11-21T18:26:16;203.50;;;15.73;;
3979;SDS011;2004;52.452;13.120;2023-11-21T18:34:07;196.70;;;17.20;;
3979;SDS011;2004;52.452;13.120;2023-11-21T18:41:58;203.10;;;19.53;;
3979;SDS011;2004;52.452;13.120;2023-11-21T18:49:49;204.63;;;18.13;;
3979;SDS011;2004;52.452;13.120;2023-11-21T18:57:40;196.73;;;16.57;;
3979;SDS011;2004;52.452;13.120;2023-11-21T19:05:31;197.33;;;17.13;;
3979;SDS011;2004;52.452;13.120;2023-11-21T19:13:23;201.37;;;18.40;;
3979;SDS011;2004;52.452;13.120;2023-11-21T19:21:14;193.20;;;15.63;;
3979;SDS011;2004;52.452;13.120;2023-11-21T19:29:06;197.30;;;16.10;;
3979;SDS011;2004;52.452;13.120;2023-11-21T19:36:58;194.77;;;16.17;;
3979;SDS011;2004;52.452;13.120;2023-11-21T19:44:49;195.07;;;16.27;;
3979;SDS011;2004;52.452;13.120;2023-11-21T19:52:40;196.67;;;17.73;;
3979;SDS011;2004;52.452;13.120;2023-11-21T20:00:30;195.97;;;16.70;;
3979;SDS011;2004;52.452;13.120;2023-11-21T20:08:21;195.43;;;16.47;;
3979;SDS011;2004;52.452;13.120;2023-11-21T20:16:12;199.13;;;16.63;;
3979;SDS011;2004;52.452;13.120;2023-11-21T20:24:02;198.70;;;17.30;;
3979;SDS011;2004;52.452;13.120;2023-11-21T20:31:53;207.70;;;21.20;;
3979;SDS011;2004;52.452;13.120;2023-11-21T20:39:44;201.20;;;19.50;;
3979;SDS011;2004;52.452;13.120;2023-11-21T20:47:36;210.33;;;19.77;;
3979;SDS011;2004;52.452;13.120;2023-11-21T20:55:26;193.97;;;16.27;;
3979;SDS011;2004;52.452;13.120;2023-11-21T21:03:18;196.07;;;16.27;;
3979;SDS011;2004;52.452;13.120;2023-11-21T21:11:09;205.50;;;17.07;;
3979;SDS011;2004;52.452;13.120;2023-11-21T21:19:00;196.57;;;17.30;;
3979;SDS011;2004;52.452;13.120;2023-11-21T21:26:54;199.83;;;17.33;;
3979;SDS011;2004;52.452;13.120;2023-11-21T21:34:45;197.33;;;17.33;;
3979;SDS011;2004;52.452;13.120;2023-11-21T21:42:35;197.27;;;16.30;;
3979;SDS011;2004;52.452;13.120;2023-11-21T21:50:26;206.30;;;16.87;;
3979;SDS011;2004;52.452;13.120;2023-11-21T21:58:19;199.83;;;17.87;;
3979;SDS011;2004;52.452;13.120;2023-11-21T22:06:10;196.27;;;16.60;;
3979;SDS011;2004;52.452;13.120;2023-11-21T22:14:06;196.67;;;16.83;;
3979;SDS011;2004;52.452;13.120;2023-11-21T22:21:58;194.50;;;15.97;;
3979;SDS011;2004;52.452;13.120;2023-11-21T22:29:49;195.50;;;15.50;;
3979;SDS011;2004;52.452;13.120;2023-11-21T22:37:39;195.87;;;15.40;;
3979;SDS011;2004;52.452;13.120;2023-11-21T22:45:30;194.80;;;15.27;;
3979;SDS011;2004;52.452;13.120;2023-11-21T22:53:21;192.97;;;13.33;;
3979;SDS011;2004;52.452;13.120;2023-11-21T23:01:12;192.10;;;13.77;;
3979;SDS011;2004;52.452;13.120;2023-11-21T23:09:04;194.87;;;13.60;;
3979;SDS011;2004;52.452;13.120;2023-11-21T23:16:54;195.60;;;14.53;;
3979;SDS011;2004;52.452;13.120;2023-11-21T23:24:47;194.57;;;14.40;;
3979;SDS011;2004;52.452;13.120;2023-11-21T23:32:39;192.10;;;13.90;;
3979;SDS011;2004;52.452;13.120;2023-11-21T23:40:30;194.93;;;13.97;;
3979;SDS011;2004;52.452;13.120;2023-11-21T23:48:21;192.97;;;14.13;;
3979;SDS011;2004;52.452;13.120;2023-11-21T23:56:12;207.53;;;15.73;;
